createdAt,value
2023-03-20T03:04:23.620Z,13.13
2023-03-20T03:09:28.020Z,12.87
2023-03-20T03:14:34.839Z,13.57
2023-03-20T03:19:29.433Z,13.47
2023-03-20T03:24:40.350Z,12.67
2023-03-20T03:29:39.667Z,12.97
2023-03-20T03:34:33.237Z,13.13
2023-03-20T03:39:41.623Z,14.50
2023-03-20T03:45:11.428Z,13.37
2023-03-20T03:50:11.617Z,13.53
2023-03-20T03:55:08.814Z,14.00
2023-03-20T04:00:03.277Z,13.93
2023-03-20T04:05:07.580Z,13.23
2023-03-20T04:10:00.352Z,12.93
2023-03-20T04:14:52.046Z,12.93
2023-03-20T04:19:47.170Z,12.87
2023-03-20T04:24:39.134Z,12.03
2023-03-20T04:29:31.121Z,10.83
2023-03-20T04:34:52.210Z,10.73
2023-03-20T04:40:11.184Z,10.07
2023-03-20T04:45:07.095Z,10.90
2023-03-20T04:50:01.228Z,10.60
2023-03-20T04:54:54.940Z,10.73
2023-03-20T04:59:46.780Z,11.67
2023-03-20T05:04:38.508Z,9.67
2023-03-20T05:09:30.396Z,10.40
2023-03-20T05:14:26.205Z,9.60
2023-03-20T05:19:50.568Z,9.63
2023-03-20T05:24:57.241Z,8.50
2023-03-20T05:29:48.952Z,8.63
2023-03-20T05:35:00.943Z,9.43
2023-03-20T05:40:07.596Z,9.27
2023-03-20T05:44:59.317Z,8.60
2023-03-20T05:50:10.980Z,9.03
2023-03-20T05:55:27.073Z,9.27
2023-03-20T06:00:39.216Z,10.30
2023-03-20T06:05:49.721Z,10.73
2023-03-20T06:10:42.108Z,10.97
2023-03-20T06:15:35.885Z,14.10
2023-03-20T06:20:37.075Z,12.60
2023-03-20T06:25:29.845Z,12.10
2023-03-20T06:30:21.897Z,12.83
2023-03-20T06:35:15.233Z,13.20
2023-03-20T06:40:11.507Z,10.83
2023-03-20T06:45:03.480Z,13.27
2023-03-20T06:50:10.307Z,12.10
2023-03-20T06:55:02.481Z,13.73
2023-03-20T06:59:54.240Z,11.37
2023-03-20T07:04:46.015Z,11.03
2023-03-20T07:09:38.513Z,11.83
2023-03-20T07:14:30.639Z,12.00
2023-03-20T07:19:28.121Z,11.13
2023-03-20T07:24:22.604Z,10.17
2023-03-20T07:29:14.400Z,9.97
2023-03-20T07:34:06.769Z,11.97
2023-03-20T07:38:59.690Z,10.93
2023-03-20T07:43:54.008Z,9.17
2023-03-20T07:48:45.647Z,9.93
2023-03-20T07:53:37.345Z,9.57
2023-03-20T07:58:29.598Z,9.17
2023-03-20T08:03:21.596Z,10.33
2023-03-20T08:08:13.434Z,8.97
2023-03-20T08:13:05.257Z,8.67
2023-03-20T08:17:58.766Z,7.40
2023-03-20T08:22:50.846Z,6.93
2023-03-20T08:27:43.027Z,6.60
2023-03-20T08:32:35.358Z,6.43
2023-03-20T08:37:28.052Z,5.23
2023-03-20T08:42:19.725Z,5.27
2023-03-20T08:47:12.380Z,5.50
2023-03-20T08:52:04.630Z,5.33
2023-03-20T08:56:56.509Z,5.67
2023-03-20T09:01:50.090Z,5.80
2023-03-20T09:06:42.165Z,6.30
2023-03-20T09:11:34.255Z,6.70
2023-03-20T09:16:26.478Z,6.33
2023-03-20T09:21:18.150Z,6.70
2023-03-20T09:26:09.798Z,6.07
2023-03-20T09:31:01.690Z,6.60
2023-03-20T09:35:53.581Z,6.73
2023-03-20T09:40:56.968Z,6.17
2023-03-20T09:46:07.025Z,5.63
2023-03-20T09:51:06.415Z,6.33
2023-03-20T09:55:59.633Z,5.60
2023-03-20T10:00:51.726Z,5.83
2023-03-20T10:05:50.096Z,5.70
2023-03-20T10:10:49.440Z,5.00
2023-03-20T10:15:49.027Z,5.50
2023-03-20T10:21:07.590Z,4.23
2023-03-20T10:26:09.250Z,3.27
2023-03-20T10:31:35.294Z,3.10
2023-03-20T10:36:39.258Z,2.77
2023-03-20T10:41:36.321Z,2.30
2023-03-20T10:46:32.589Z,2.63
2023-03-20T10:51:53.219Z,2.13
2023-03-20T10:56:49.638Z,2.43
2023-03-20T11:01:41.519Z,2.67
2023-03-20T11:06:51.498Z,2.80
2023-03-20T11:11:46.542Z,3.23
2023-03-20T11:16:40.738Z,3.33
2023-03-20T11:21:35.631Z,3.40
2023-03-20T11:26:38.265Z,2.73
2023-03-20T11:31:33.578Z,3.30
2023-03-20T11:36:30.170Z,2.73
2023-03-20T11:41:27.443Z,2.90
2023-03-20T11:46:23.461Z,2.63
2023-03-20T11:51:21.758Z,2.60
2023-03-20T11:56:34.346Z,2.77
2023-03-20T12:01:28.893Z,2.87
2023-03-20T12:06:25.311Z,2.57
2023-03-20T12:11:43.274Z,2.50
2023-03-20T12:16:37.994Z,2.73
2023-03-20T12:21:48.487Z,2.33
2023-03-20T12:26:56.633Z,3.20
2023-03-20T12:31:53.929Z,3.30
2023-03-20T12:36:49.092Z,2.13
2023-03-20T12:42:09.531Z,2.00
2023-03-20T12:47:13.643Z,2.20
2023-03-20T12:52:26.248Z,2.03
2023-03-20T12:57:48.172Z,2.27
2023-03-20T13:03:01.934Z,1.73
2023-03-20T13:07:59.767Z,2.33
2023-03-20T13:13:06.742Z,1.80
2023-03-20T13:18:43.289Z,1.70
2023-03-20T13:24:13.874Z,1.47
2023-03-20T13:29:30.631Z,1.50
2023-03-20T13:34:42.111Z,1.57
2023-03-20T13:40:03.179Z,1.40
2023-03-20T13:45:01.743Z,1.77
2023-03-20T13:50:31.555Z,1.50
2023-03-20T13:55:47.032Z,1.53
2023-03-20T14:01:05.831Z,1.30
2023-03-20T14:05:57.684Z,1.50
2023-03-20T14:10:57.966Z,1.43
2023-03-20T14:15:55.873Z,1.33
2023-03-20T14:20:55.383Z,1.20
2023-03-20T14:25:49.256Z,2.20
2023-03-20T14:30:46.695Z,2.20
2023-03-20T14:35:42.952Z,1.50
2023-03-20T14:40:43.373Z,1.70
2023-03-20T14:45:44.798Z,1.70
2023-03-20T14:51:04.449Z,1.60
2023-03-20T14:55:56.033Z,1.77
2023-03-20T15:00:47.899Z,1.73
2023-03-20T15:05:40.221Z,2.20
2023-03-20T15:10:37.336Z,1.30
2023-03-20T15:15:34.026Z,1.67
2023-03-20T15:20:31.883Z,1.73
2023-03-20T15:25:29.532Z,1.50
2023-03-20T15:30:22.679Z,1.93
2023-03-20T15:35:21.103Z,1.90
2023-03-20T15:40:22.002Z,1.90
2023-03-20T15:45:23.454Z,2.33
2023-03-20T15:50:16.522Z,2.20
2023-03-20T15:55:16.735Z,1.97
2023-03-20T16:00:19.662Z,2.33
2023-03-20T16:05:16.409Z,2.20
2023-03-20T16:10:36.196Z,2.47
2023-03-20T16:15:31.658Z,2.30
2023-03-20T16:20:25.505Z,2.20
2023-03-20T16:25:18.783Z,2.40
2023-03-20T16:30:17.906Z,2.30
2023-03-20T16:35:21.806Z,1.93
2023-03-20T16:40:28.689Z,2.50
2023-03-20T16:45:25.598Z,2.77
2023-03-20T16:50:24.026Z,2.40
2023-03-20T16:55:43.545Z,2.23
2023-03-20T17:01:08.619Z,2.30
2023-03-20T17:06:06.719Z,3.60
2023-03-20T17:11:02.957Z,2.67
2023-03-20T17:15:55.317Z,3.17
2023-03-20T17:20:46.991Z,2.80
2023-03-20T17:25:38.765Z,2.53
2023-03-20T17:30:30.530Z,2.97
2023-03-20T17:35:22.422Z,3.13
2023-03-20T17:40:21.638Z,2.70
2023-03-20T17:45:15.562Z,3.30
2023-03-20T17:50:10.269Z,3.13
2023-03-20T17:55:02.045Z,2.37
2023-03-20T17:59:54.074Z,2.73
2023-03-20T18:04:46.400Z,2.40
2023-03-20T18:09:39.358Z,2.20
2023-03-20T18:14:31.202Z,2.40
2023-03-20T18:19:28.654Z,2.20
2023-03-20T18:24:20.588Z,2.10
2023-03-20T18:29:13.321Z,2.17
2023-03-20T18:34:05.715Z,2.00
2023-03-20T18:38:57.435Z,2.37
2023-03-20T18:43:49.422Z,2.97
2023-03-20T18:48:42.130Z,3.53
2023-03-20T18:53:34.065Z,2.07
2023-03-20T18:58:28.912Z,2.70
2023-03-20T19:03:23.824Z,2.30
2023-03-20T19:08:16.432Z,2.87
2023-03-20T19:13:08.162Z,3.50
2023-03-20T19:18:01.155Z,2.27
2023-03-20T19:22:52.923Z,2.20
2023-03-20T19:27:44.637Z,2.60
2023-03-20T19:32:38.030Z,2.93
2023-03-20T19:37:30.111Z,2.37
2023-03-20T19:42:50.746Z,2.07
2023-03-20T19:47:33.565Z,2.40
2023-03-20T19:52:31.969Z,3.00
2023-03-20T19:57:23.777Z,3.10
2023-03-20T20:02:15.616Z,3.17
2023-03-20T20:07:52.971Z,2.43
2023-03-20T20:12:19.420Z,2.63
2023-03-20T20:17:11.073Z,2.53
2023-03-20T20:22:20.260Z,2.47
2023-03-20T20:27:18.128Z,2.20
2023-03-20T20:32:10.658Z,2.73
2023-03-20T20:37:42.765Z,3.20
2023-03-20T20:42:14.376Z,2.93
2023-03-20T20:47:06.687Z,2.70
2023-03-20T20:51:58.612Z,2.67
2023-03-20T20:56:51.100Z,3.40
2023-03-20T21:01:42.931Z,3.10
2023-03-20T21:07:05.645Z,2.77
2023-03-20T21:11:46.795Z,3.53
2023-03-20T21:16:38.520Z,3.53
2023-03-20T21:21:30.742Z,3.17
2023-03-20T21:26:22.479Z,3.13
2023-03-20T21:31:26.817Z,3.43
2023-03-20T21:36:21.889Z,3.30
2023-03-20T21:41:13.917Z,3.07
2023-03-20T21:57:06.940Z,3.80
2023-03-20T22:02:06.431Z,4.10
2023-03-20T22:07:32.018Z,3.40
2023-03-20T22:17:56.230Z,3.30
2023-03-20T22:48:29.264Z,3.60
2023-03-20T22:53:21.009Z,2.93
2023-03-20T22:58:14.773Z,3.43
2023-03-20T23:03:17.542Z,3.40
2023-03-20T23:08:14.475Z,3.83
2023-03-20T23:13:06.522Z,2.93
2023-03-20T23:17:58.282Z,3.30
2023-03-20T23:22:50.340Z,3.40
2023-03-20T23:27:42.744Z,3.40
2023-03-20T23:32:39.008Z,4.00
2023-03-20T23:37:30.948Z,3.70
2023-03-20T23:42:30.310Z,4.47
2023-03-20T23:47:22.732Z,4.23
2023-03-20T23:52:15.880Z,3.80
2023-03-20T23:57:07.611Z,3.73
